Witch Wells, Arizona
Current Conditions -  °F | °C
As of 1:54 AM on Sunday 26 Oct 2014 (Local Time) from KSJN Reporting Station
Clear Clear  
Wind Chill: 13°   Ceiling: Unl
Heat Index: 13°   Visibility: 10mi
Dew Point:   Wind: 3mph
Humidity: 64%   Direction: 190°S
Pressure: 30.18"   Gusts: NA
Location:  34.4981°N, 109.241°W
Report Text: KSJN 260854Z AUTO 19003KT 10SM CLR 13/07 A3018 RMK AO2 SLP135 T01330067 56008
Loading
Personal Weather Stations






























Interactive Weather Map
Tropical Storm Tracking
New forecast layout! Learn more

10-Day Weather Forecast

Advertisements
Track Severe Weather on mobile